sensor_id;sensor_type;location;lat;lon;timestamp;temperature;humidity
18741;DHT22;9499;52.472;13.448;2024-01-25T00:01:06;8.90;1.00
18741;DHT22;9499;52.472;13.448;2024-01-25T00:03:33;8.90;1.00
18741;DHT22;9499;52.472;13.448;2024-01-25T00:06:01;8.80;8.10
18741;DHT22;9499;52.472;13.448;2024-01-25T00:08:27;8.80;4.70
18741;DHT22;9499;52.472;13.448;2024-01-25T00:10:54;8.80;99.90
18741;DHT22;9499;52.472;13.448;2024-01-25T00:13:20;8.80;1.00
18741;DHT22;9499;52.472;13.448;2024-01-25T00:15:47;8.80;1.00
18741;DHT22;9499;52.472;13.448;2024-01-25T00:18:13;8.80;1.00
18741;DHT22;9499;52.472;13.448;2024-01-25T00:20:40;8.70;99.90
18741;DHT22;9499;52.472;13.448;2024-01-25T00:23:07;8.70;99.90
18741;DHT22;9499;52.472;13.448;2024-01-25T00:25:34;8.70;1.00
18741;DHT22;9499;52.472;13.448;2024-01-25T00:28:00;8.70;1.00
18741;DHT22;9499;52.472;13.448;2024-01-25T00:30:27;8.70;1.00
18741;DHT22;9499;52.472;13.448;2024-01-25T00:32:53;8.70;1.00
18741;DHT22;9499;52.472;13.448;2024-01-25T00:35:20;8.60;1.00
18741;DHT22;9499;52.472;13.448;2024-01-25T00:37:47;8.70;1.00
18741;DHT22;9499;52.472;13.448;2024-01-25T00:40:16;8.60;1.00
18741;DHT22;9499;52.472;13.448;2024-01-25T00:42:44;8.60;1.00
18741;DHT22;9499;52.472;13.448;2024-01-25T00:45:14;8.70;99.90
18741;DHT22;9499;52.472;13.448;2024-01-25T00:47:42;8.70;1.00
18741;DHT22;9499;52.472;13.448;2024-01-25T00:50:09;8.60;1.00
18741;DHT22;9499;52.472;13.448;2024-01-25T00:52:36;8.60;99.90
18741;DHT22;9499;52.472;13.448;2024-01-25T00:55:03;8.60;99.90
18741;DHT22;9499;52.472;13.448;2024-01-25T00:57:32;8.60;99.90
18741;DHT22;9499;52.472;13.448;2024-01-25T00:59:59;8.70;1.00
18741;DHT22;9499;52.472;13.448;2024-01-25T01:02:26;8.70;99.90
18741;DHT22;9499;52.472;13.448;2024-01-25T01:04:56;8.60;99.90
18741;DHT22;9499;52.472;13.448;2024-01-25T01:07:23;8.60;99.90
18741;DHT22;9499;52.472;13.448;2024-01-25T01:09:50;8.60;99.90
18741;DHT22;9499;52.472;13.448;2024-01-25T01:12:16;8.60;99.90
18741;DHT22;9499;52.472;13.448;2024-01-25T01:14:44;8.60;99.90
18741;DHT22;9499;52.472;13.448;2024-01-25T01:17:10;8.60;99.90
18741;DHT22;9499;52.472;13.448;2024-01-25T01:19:37;8.60;1.00
18741;DHT22;9499;52.472;13.448;2024-01-25T01:22:03;8.60;1.00
18741;DHT22;9499;52.472;13.448;2024-01-25T01:24:30;8.60;1.00
18741;DHT22;9499;52.472;13.448;2024-01-25T01:26:56;8.60;1.00
18741;DHT22;9499;52.472;13.448;2024-01-25T01:29:24;8.60;1.00
18741;DHT22;9499;52.472;13.448;2024-01-25T01:31:52;8.70;1.00
18741;DHT22;9499;52.472;13.448;2024-01-25T01:34:18;8.60;1.00
18741;DHT22;9499;52.472;13.448;2024-01-25T01:36:45;8.70;1.00
18741;DHT22;9499;52.472;13.448;2024-01-25T01:39:11;8.60;1.00
18741;DHT22;9499;52.472;13.448;2024-01-25T01:41:38;8.60;1.00
18741;DHT22;9499;52.472;13.448;2024-01-25T01:44:04;8.60;1.00
18741;DHT22;9499;52.472;13.448;2024-01-25T01:46:33;8.60;1.00
18741;DHT22;9499;52.472;13.448;2024-01-25T01:49:04;8.70;1.00
18741;DHT22;9499;52.472;13.448;2024-01-25T01:51:31;8.60;1.00
18741;DHT22;9499;52.472;13.448;2024-01-25T01:53:59;8.60;1.00
18741;DHT22;9499;52.472;13.448;2024-01-25T01:56:27;8.60;1.00
18741;DHT22;9499;52.472;13.448;2024-01-25T01:58:54;8.60;1.00
18741;DHT22;9499;52.472;13.448;2024-01-25T02:01:22;8.60;1.00
18741;DHT22;9499;52.472;13.448;2024-01-25T02:03:49;8.60;1.00
18741;DHT22;9499;52.472;13.448;2024-01-25T02:06:18;8.60;1.00
18741;DHT22;9499;52.472;13.448;2024-01-25T02:08:45;8.60;1.00
18741;DHT22;9499;52.472;13.448;2024-01-25T02:11:12;8.60;99.90
18741;DHT22;9499;52.472;13.448;2024-01-25T02:13:38;8.60;1.00
18741;DHT22;9499;52.472;13.448;2024-01-25T02:16:07;8.60;1.00
18741;DHT22;9499;52.472;13.448;2024-01-25T02:18:34;8.50;1.00
18741;DHT22;9499;52.472;13.448;2024-01-25T02:21:00;8.50;1.00
18741;DHT22;9499;52.472;13.448;2024-01-25T02:23:28;8.50;1.00
18741;DHT22;9499;52.472;13.448;2024-01-25T02:25:55;8.50;1.00
18741;DHT22;9499;52.472;13.448;2024-01-25T02:28:21;8.50;1.00
18741;DHT22;9499;52.472;13.448;2024-01-25T02:30:47;8.50;1.00
18741;DHT22;9499;52.472;13.448;2024-01-25T02:33:14;8.50;1.00
18741;DHT22;9499;52.472;13.448;2024-01-25T02:35:40;8.50;1.00
18741;DHT22;9499;52.472;13.448;2024-01-25T02:38:07;8.50;1.00
18741;DHT22;9499;52.472;13.448;2024-01-25T02:40:35;8.50;30.00
18741;DHT22;9499;52.472;13.448;2024-01-25T02:43:01;8.50;30.30
18741;DHT22;9499;52.472;13.448;2024-01-25T02:45:28;8.40;99.90
18741;DHT22;9499;52.472;13.448;2024-01-25T02:47:54;8.40;99.90
18741;DHT22;9499;52.472;13.448;2024-01-25T02:50:21;8.40;99.90
18741;DHT22;9499;52.472;13.448;2024-01-25T02:52:47;8.40;99.90
18741;DHT22;9499;52.472;13.448;2024-01-25T02:55:14;8.40;99.90
18741;DHT22;9499;52.472;13.448;2024-01-25T02:57:42;8.40;1.00
18741;DHT22;9499;52.472;13.448;2024-01-25T03:00:09;8.30;1.00
18741;DHT22;9499;52.472;13.448;2024-01-25T03:02:36;8.30;1.00
18741;DHT22;9499;52.472;13.448;2024-01-25T03:05:02;8.30;99.90
18741;DHT22;9499;52.472;13.448;2024-01-25T03:07:29;8.30;99.90
18741;DHT22;9499;52.472;13.448;2024-01-25T03:09:56;8.30;99.90
18741;DHT22;9499;52.472;13.448;2024-01-25T03:12:22;8.30;99.90
18741;DHT22;9499;52.472;13.448;2024-01-25T03:14:50;8.30;99.90
18741;DHT22;9499;52.472;13.448;2024-01-25T03:17:16;8.30;99.90
18741;DHT22;9499;52.472;13.448;2024-01-25T03:19:43;8.30;1.00
18741;DHT22;9499;52.472;13.448;2024-01-25T03:22:09;8.30;1.00
18741;DHT22;9499;52.472;13.448;2024-01-25T03:24:37;8.30;1.00
18741;DHT22;9499;52.472;13.448;2024-01-25T03:27:04;8.30;1.00
18741;DHT22;9499;52.472;13.448;2024-01-25T03:29:30;8.30;1.00
18741;DHT22;9499;52.472;13.448;2024-01-25T03:31:58;8.30;1.00
18741;DHT22;9499;52.472;13.448;2024-01-25T03:34:25;8.30;99.90
18741;DHT22;9499;52.472;13.448;2024-01-25T03:36:51;8.30;1.00
18741;DHT22;9499;52.472;13.448;2024-01-25T03:39:19;8.30;1.00
18741;DHT22;9499;52.472;13.448;2024-01-25T03:41:46;8.30;1.00
18741;DHT22;9499;52.472;13.448;2024-01-25T03:44:12;8.30;1.00
18741;DHT22;9499;52.472;13.448;2024-01-25T03:46:39;8.30;99.90
18741;DHT22;9499;52.472;13.448;2024-01-25T03:49:07;8.30;1.00
18741;DHT22;9499;52.472;13.448;2024-01-25T03:51:33;8.30;1.00
18741;DHT22;9499;52.472;13.448;2024-01-25T03:53:59;8.30;1.00
18741;DHT22;9499;52.472;13.448;2024-01-25T03:56:25;8.20;1.00
18741;DHT22;9499;52.472;13.448;2024-01-25T03:58:52;8.20;1.00
18741;DHT22;9499;52.472;13.448;2024-01-25T04:01:18;8.20;1.00
18741;DHT22;9499;52.472;13.448;2024-01-25T04:03:45;8.20;1.00
18741;DHT22;9499;52.472;13.448;2024-01-25T04:06:13;8.20;99.90
18741;DHT22;9499;52.472;13.448;2024-01-25T04:08:39;8.20;1.00
18741;DHT22;9499;52.472;13.448;2024-01-25T04:11:06;8.20;1.00
18741;DHT22;9499;52.472;13.448;2024-01-25T04:13:34;8.20;1.00
18741;DHT22;9499;52.472;13.448;2024-01-25T04:16:00;8.20;1.00
18741;DHT22;9499;52.472;13.448;2024-01-25T04:18:27;8.20;1.00
18741;DHT22;9499;52.472;13.448;2024-01-25T04:20:53;8.20;1.00
18741;DHT22;9499;52.472;13.448;2024-01-25T04:23:21;8.20;1.00
18741;DHT22;9499;52.472;13.448;2024-01-25T04:25:47;8.20;1.00
18741;DHT22;9499;52.472;13.448;2024-01-25T04:28:14;8.10;1.00
18741;DHT22;9499;52.472;13.448;2024-01-25T04:30:41;8.20;1.00
18741;DHT22;9499;52.472;13.448;2024-01-25T04:33:07;8.20;1.00
18741;DHT22;9499;52.472;13.448;2024-01-25T04:35:34;8.20;1.00
18741;DHT22;9499;52.472;13.448;2024-01-25T04:38:00;8.10;1.00
18741;DHT22;9499;52.472;13.448;2024-01-25T04:40:28;8.10;1.00
18741;DHT22;9499;52.472;13.448;2024-01-25T04:42:54;8.10;1.00
18741;DHT22;9499;52.472;13.448;2024-01-25T04:45:21;8.10;17.60
18741;DHT22;9499;52.472;13.448;2024-01-25T04:47:47;8.10;51.50
18741;DHT22;9499;52.472;13.448;2024-01-25T04:50:14;8.10;36.60
18741;DHT22;9499;52.472;13.448;2024-01-25T04:52:41;8.10;74.30
18741;DHT22;9499;52.472;13.448;2024-01-25T04:55:08;8.10;1.00
18741;DHT22;9499;52.472;13.448;2024-01-25T04:57:36;8.10;1.00
18741;DHT22;9499;52.472;13.448;2024-01-25T05:00:02;8.10;1.00
18741;DHT22;9499;52.472;13.448;2024-01-25T05:02:29;8.10;1.00
18741;DHT22;9499;52.472;13.448;2024-01-25T05:04:56;8.10;1.00
18741;DHT22;9499;52.472;13.448;2024-01-25T05:07:22;8.10;33.20
18741;DHT22;9499;52.472;13.448;2024-01-25T05:09:49;8.10;99.90
18741;DHT22;9499;52.472;13.448;2024-01-25T05:12:15;8.10;99.90
18741;DHT22;9499;52.472;13.448;2024-01-25T05:14:43;8.10;99.90
18741;DHT22;9499;52.472;13.448;2024-01-25T05:17:09;8.10;99.90
18741;DHT22;9499;52.472;13.448;2024-01-25T05:19:36;8.10;99.90
18741;DHT22;9499;52.472;13.448;2024-01-25T05:22:02;8.00;99.90
18741;DHT22;9499;52.472;13.448;2024-01-25T05:24:31;8.00;99.90
18741;DHT22;9499;52.472;13.448;2024-01-25T05:26:58;8.00;99.90
18741;DHT22;9499;52.472;13.448;2024-01-25T05:29:24;8.00;99.90
18741;DHT22;9499;52.472;13.448;2024-01-25T05:31:52;8.00;99.90
18741;DHT22;9499;52.472;13.448;2024-01-25T05:34:19;8.00;99.90
18741;DHT22;9499;52.472;13.448;2024-01-25T05:36:45;8.00;99.90
18741;DHT22;9499;52.472;13.448;2024-01-25T05:39:12;8.00;99.90
18741;DHT22;9499;52.472;13.448;2024-01-25T05:41:40;8.10;1.00
18741;DHT22;9499;52.472;13.448;2024-01-25T05:44:06;8.00;1.00
18741;DHT22;9499;52.472;13.448;2024-01-25T05:46:32;8.10;99.90
18741;DHT22;9499;52.472;13.448;2024-01-25T05:49:00;8.10;1.00
18741;DHT22;9499;52.472;13.448;2024-01-25T05:51:27;8.10;99.90
18741;DHT22;9499;52.472;13.448;2024-01-25T05:53:53;8.10;99.90
18741;DHT22;9499;52.472;13.448;2024-01-25T05:56:20;8.10;99.90
18741;DHT22;9499;52.472;13.448;2024-01-25T05:58:46;8.10;99.90
18741;DHT22;9499;52.472;13.448;2024-01-25T06:01:13;8.10;99.90
18741;DHT22;9499;52.472;13.448;2024-01-25T06:03:40;8.10;1.00
18741;DHT22;9499;52.472;13.448;2024-01-25T06:06:07;8.10;1.00
18741;DHT22;9499;52.472;13.448;2024-01-25T06:08:34;8.10;1.00
18741;DHT22;9499;52.472;13.448;2024-01-25T06:11:00;8.10;1.00
18741;DHT22;9499;52.472;13.448;2024-01-25T06:13:27;8.10;1.00
18741;DHT22;9499;52.472;13.448;2024-01-25T06:15:53;8.10;1.00
18741;DHT22;9499;52.472;13.448;2024-01-25T06:18:20;8.10;1.00
18741;DHT22;9499;52.472;13.448;2024-01-25T06:20:46;8.10;1.00
18741;DHT22;9499;52.472;13.448;2024-01-25T06:23:14;8.10;1.00
18741;DHT22;9499;52.472;13.448;2024-01-25T06:25:41;8.10;1.00
18741;DHT22;9499;52.472;13.448;2024-01-25T06:28:07;8.00;1.00
18741;DHT22;9499;52.472;13.448;2024-01-25T06:30:34;8.00;1.00
18741;DHT22;9499;52.472;13.448;2024-01-25T06:33:00;8.00;1.40
18741;DHT22;9499;52.472;13.448;2024-01-25T06:35:28;8.00;13.50
18741;DHT22;9499;52.472;13.448;2024-01-25T06:37:54;8.00;99.90
18741;DHT22;9499;52.472;13.448;2024-01-25T06:40:22;8.00;60.90
18741;DHT22;9499;52.472;13.448;2024-01-25T06:42:49;8.00;99.90
18741;DHT22;9499;52.472;13.448;2024-01-25T06:45:15;8.00;1.00
18741;DHT22;9499;52.472;13.448;2024-01-25T06:47:42;8.00;1.00
18741;DHT22;9499;52.472;13.448;2024-01-25T06:50:09;8.00;1.00
18741;DHT22;9499;52.472;13.448;2024-01-25T06:52:35;8.00;1.00
18741;DHT22;9499;52.472;13.448;2024-01-25T06:55:02;8.00;1.00
18741;DHT22;9499;52.472;13.448;2024-01-25T06:57:30;8.00;1.00
18741;DHT22;9499;52.472;13.448;2024-01-25T06:59:56;8.00;1.00
18741;DHT22;9499;52.472;13.448;2024-01-25T07:02:23;8.00;1.00
18741;DHT22;9499;52.472;13.448;2024-01-25T07:04:49;8.00;1.00
18741;DHT22;9499;52.472;13.448;2024-01-25T07:07:18;8.00;99.90
18741;DHT22;9499;52.472;13.448;2024-01-25T07:09:44;8.00;99.90
18741;DHT22;9499;52.472;13.448;2024-01-25T07:12:11;8.00;99.90
18741;DHT22;9499;52.472;13.448;2024-01-25T07:14:38;8.10;1.00
18741;DHT22;9499;52.472;13.448;2024-01-25T07:17:05;8.10;1.00
18741;DHT22;9499;52.472;13.448;2024-01-25T07:19:31;8.10;1.00
18741;DHT22;9499;52.472;13.448;2024-01-25T07:21:58;8.10;19.80
18741;DHT22;9499;52.472;13.448;2024-01-25T07:24:24;8.20;68.00
18741;DHT22;9499;52.472;13.448;2024-01-25T07:26:51;8.10;99.90
18741;DHT22;9499;52.472;13.448;2024-01-25T07:29:18;8.10;99.90
18741;DHT22;9499;52.472;13.448;2024-01-25T07:31:45;8.10;99.90
18741;DHT22;9499;52.472;13.448;2024-01-25T07:34:12;8.10;99.90
18741;DHT22;9499;52.472;13.448;2024-01-25T07:36:38;8.10;99.90
18741;DHT22;9499;52.472;13.448;2024-01-25T07:39:05;8.10;1.00
18741;DHT22;9499;52.472;13.448;2024-01-25T07:41:31;8.10;1.00
18741;DHT22;9499;52.472;13.448;2024-01-25T07:43:58;8.10;99.90
18741;DHT22;9499;52.472;13.448;2024-01-25T07:46:24;8.10;1.00
18741;DHT22;9499;52.472;13.448;2024-01-25T07:48:52;8.10;1.00
18741;DHT22;9499;52.472;13.448;2024-01-25T07:51:19;8.10;99.90
18741;DHT22;9499;52.472;13.448;2024-01-25T07:53:45;8.10;1.00
18741;DHT22;9499;52.472;13.448;2024-01-25T07:56:12;8.10;1.00
18741;DHT22;9499;52.472;13.448;2024-01-25T07:58:39;8.10;1.00
18741;DHT22;9499;52.472;13.448;2024-01-25T08:01:06;8.10;1.00
18741;DHT22;9499;52.472;13.448;2024-01-25T08:03:33;8.10;1.00
18741;DHT22;9499;52.472;13.448;2024-01-25T08:06:02;8.00;1.00
18741;DHT22;9499;52.472;13.448;2024-01-25T08:08:28;8.10;1.00
18741;DHT22;9499;52.472;13.448;2024-01-25T08:10:55;8.00;1.00
18741;DHT22;9499;52.472;13.448;2024-01-25T08:13:21;8.00;1.00
18741;DHT22;9499;52.472;13.448;2024-01-25T08:15:48;8.10;1.00
18741;DHT22;9499;52.472;13.448;2024-01-25T08:18:15;8.00;99.90
18741;DHT22;9499;52.472;13.448;2024-01-25T08:20:44;8.00;99.90
18741;DHT22;9499;52.472;13.448;2024-01-25T08:23:12;8.00;1.00
18741;DHT22;9499;52.472;13.448;2024-01-25T08:25:39;8.00;1.00
18741;DHT22;9499;52.472;13.448;2024-01-25T08:28:06;8.00;1.00
18741;DHT22;9499;52.472;13.448;2024-01-25T08:30:32;8.00;99.90
18741;DHT22;9499;52.472;13.448;2024-01-25T08:32:59;8.00;99.90
18741;DHT22;9499;52.472;13.448;2024-01-25T08:35:25;8.00;99.90
18741;DHT22;9499;52.472;13.448;2024-01-25T08:37:52;8.00;99.90
18741;DHT22;9499;52.472;13.448;2024-01-25T08:40:19;8.00;99.90
18741;DHT22;9499;52.472;13.448;2024-01-25T08:42:46;8.00;99.90
18741;DHT22;9499;52.472;13.448;2024-01-25T08:45:12;8.00;99.90
18741;DHT22;9499;52.472;13.448;2024-01-25T08:47:39;8.00;99.90
18741;DHT22;9499;52.472;13.448;2024-01-25T08:50:07;8.00;99.90
18741;DHT22;9499;52.472;13.448;2024-01-25T08:52:35;8.00;99.90
18741;DHT22;9499;52.472;13.448;2024-01-25T08:55:02;8.00;99.90
18741;DHT22;9499;52.472;13.448;2024-01-25T08:57:31;8.00;99.90
18741;DHT22;9499;52.472;13.448;2024-01-25T08:59:57;8.10;99.90
18741;DHT22;9499;52.472;13.448;2024-01-25T09:02:26;8.00;99.90
18741;DHT22;9499;52.472;13.448;2024-01-25T09:04:54;8.00;99.90
18741;DHT22;9499;52.472;13.448;2024-01-25T09:07:21;8.10;99.90
18741;DHT22;9499;52.472;13.448;2024-01-25T09:09:48;8.10;99.90
18741;DHT22;9499;52.472;13.448;2024-01-25T09:12:15;8.10;99.90
18741;DHT22;9499;52.472;13.448;2024-01-25T09:14:43;8.10;99.90
18741;DHT22;9499;52.472;13.448;2024-01-25T09:17:09;8.10;99.90
18741;DHT22;9499;52.472;13.448;2024-01-25T09:19:36;8.10;99.90
18741;DHT22;9499;52.472;13.448;2024-01-25T09:22:02;8.00;99.90
18741;DHT22;9499;52.472;13.448;2024-01-25T09:24:30;8.00;99.90
18741;DHT22;9499;52.472;13.448;2024-01-25T09:26:58;8.10;99.90
18741;DHT22;9499;52.472;13.448;2024-01-25T09:29:25;8.10;99.90
18741;DHT22;9499;52.472;13.448;2024-01-25T09:31:53;8.00;99.90
18741;DHT22;9499;52.472;13.448;2024-01-25T09:34:19;8.00;1.00
18741;DHT22;9499;52.472;13.448;2024-01-25T09:36:46;8.00;1.00
18741;DHT22;9499;52.472;13.448;2024-01-25T09:39:13;8.10;99.90
18741;DHT22;9499;52.472;13.448;2024-01-25T09:41:40;8.00;1.00
18741;DHT22;9499;52.472;13.448;2024-01-25T09:44:08;8.00;1.00
18741;DHT22;9499;52.472;13.448;2024-01-25T09:46:34;8.00;99.90
18741;DHT22;9499;52.472;13.448;2024-01-25T09:49:02;8.00;1.00
18741;DHT22;9499;52.472;13.448;2024-01-25T09:51:34;8.00;1.00
18741;DHT22;9499;52.472;13.448;2024-01-25T09:54:03;8.00;1.00
18741;DHT22;9499;52.472;13.448;2024-01-25T09:56:32;8.00;1.00
18741;DHT22;9499;52.472;13.448;2024-01-25T09:58:59;8.00;1.00
18741;DHT22;9499;52.472;13.448;2024-01-25T10:01:26;8.00;1.00
18741;DHT22;9499;52.472;13.448;2024-01-25T10:03:53;8.10;1.00
18741;DHT22;9499;52.472;13.448;2024-01-25T10:06:22;8.00;1.00
18741;DHT22;9499;52.472;13.448;2024-01-25T10:08:49;8.10;1.00
18741;DHT22;9499;52.472;13.448;2024-01-25T10:11:16;8.10;1.00
18741;DHT22;9499;52.472;13.448;2024-01-25T10:13:43;8.10;99.90
18741;DHT22;9499;52.472;13.448;2024-01-25T10:16:11;8.10;1.00
18741;DHT22;9499;52.472;13.448;2024-01-25T10:18:40;8.10;1.00
18741;DHT22;9499;52.472;13.448;2024-01-25T10:21:06;8.10;1.00
18741;DHT22;9499;52.472;13.448;2024-01-25T10:23:34;8.10;1.00
18741;DHT22;9499;52.472;13.448;2024-01-25T10:26:01;8.10;1.00
18741;DHT22;9499;52.472;13.448;2024-01-25T10:28:27;8.10;1.00
18741;DHT22;9499;52.472;13.448;2024-01-25T10:30:56;8.10;1.00
18741;DHT22;9499;52.472;13.448;2024-01-25T10:33:24;8.10;1.00
18741;DHT22;9499;52.472;13.448;2024-01-25T10:35:54;8.10;1.00
18741;DHT22;9499;52.472;13.448;2024-01-25T10:38:21;8.20;1.00
18741;DHT22;9499;52.472;13.448;2024-01-25T10:40:49;8.20;1.00
18741;DHT22;9499;52.472;13.448;2024-01-25T10:43:16;8.20;1.00
18741;DHT22;9499;52.472;13.448;2024-01-25T10:45:42;8.20;99.90
18741;DHT22;9499;52.472;13.448;2024-01-25T10:48:09;8.20;1.00
18741;DHT22;9499;52.472;13.448;2024-01-25T10:50:35;8.20;99.90
18741;DHT22;9499;52.472;13.448;2024-01-25T10:53:03;8.20;99.90
18741;DHT22;9499;52.472;13.448;2024-01-25T10:55:30;8.20;1.00
18741;DHT22;9499;52.472;13.448;2024-01-25T10:57:58;8.20;99.90
18741;DHT22;9499;52.472;13.448;2024-01-25T11:00:24;8.20;1.00
18741;DHT22;9499;52.472;13.448;2024-01-25T11:02:51;8.30;1.00
18741;DHT22;9499;52.472;13.448;2024-01-25T11:05:18;8.30;1.00
18741;DHT22;9499;52.472;13.448;2024-01-25T11:07:47;8.30;1.00
18741;DHT22;9499;52.472;13.448;2024-01-25T11:10:16;8.40;1.00
18741;DHT22;9499;52.472;13.448;2024-01-25T11:12:50;8.40;1.00
18741;DHT22;9499;52.472;13.448;2024-01-25T11:15:22;8.40;99.90
18741;DHT22;9499;52.472;13.448;2024-01-25T11:17:56;8.30;99.90
18741;DHT22;9499;52.472;13.448;2024-01-25T11:20:23;8.30;99.90
18741;DHT22;9499;52.472;13.448;2024-01-25T11:22:56;8.40;99.90
18741;DHT22;9499;52.472;13.448;2024-01-25T11:25:23;8.40;99.90
18741;DHT22;9499;52.472;13.448;2024-01-25T11:27:49;8.40;99.90
18741;DHT22;9499;52.472;13.448;2024-01-25T11:30:18;8.40;99.90
18741;DHT22;9499;52.472;13.448;2024-01-25T11:32:47;8.50;1.00
18741;DHT22;9499;52.472;13.448;2024-01-25T11:35:15;8.50;1.00
18741;DHT22;9499;52.472;13.448;2024-01-25T11:37:43;8.50;1.00
18741;DHT22;9499;52.472;13.448;2024-01-25T11:40:10;8.70;1.00
18741;DHT22;9499;52.472;13.448;2024-01-25T11:42:37;8.80;99.90
18741;DHT22;9499;52.472;13.448;2024-01-25T11:45:05;8.90;99.90
18741;DHT22;9499;52.472;13.448;2024-01-25T11:47:33;8.80;99.90
18741;DHT22;9499;52.472;13.448;2024-01-25T11:50:01;8.80;99.90
18741;DHT22;9499;52.472;13.448;2024-01-25T11:52:28;8.70;99.90
18741;DHT22;9499;52.472;13.448;2024-01-25T11:54:57;8.60;99.90
18741;DHT22;9499;52.472;13.448;2024-01-25T11:57:23;8.60;1.00
18741;DHT22;9499;52.472;13.448;2024-01-25T11:59:50;8.60;1.00
18741;DHT22;9499;52.472;13.448;2024-01-25T12:02:17;8.60;99.90
18741;DHT22;9499;52.472;13.448;2024-01-25T12:04:46;8.60;99.90
18741;DHT22;9499;52.472;13.448;2024-01-25T12:07:14;8.60;1.00
18741;DHT22;9499;52.472;13.448;2024-01-25T12:09:41;8.60;1.00
18741;DHT22;9499;52.472;13.448;2024-01-25T12:12:09;8.60;99.90
18741;DHT22;9499;52.472;13.448;2024-01-25T12:14:35;8.60;99.90
18741;DHT22;9499;52.472;13.448;2024-01-25T12:17:03;8.60;99.90
18741;DHT22;9499;52.472;13.448;2024-01-25T12:19:30;8.70;99.90
18741;DHT22;9499;52.472;13.448;2024-01-25T12:21:56;8.70;99.90
18741;DHT22;9499;52.472;13.448;2024-01-25T12:24:24;8.80;99.90
18741;DHT22;9499;52.472;13.448;2024-01-25T12:26:50;8.70;99.90
18741;DHT22;9499;52.472;13.448;2024-01-25T12:29:17;8.70;99.90
18741;DHT22;9499;52.472;13.448;2024-01-25T12:31:43;8.60;99.90
18741;DHT22;9499;52.472;13.448;2024-01-25T12:34:13;8.60;99.90
18741;DHT22;9499;52.472;13.448;2024-01-25T12:36:40;8.70;1.00
18741;DHT22;9499;52.472;13.448;2024-01-25T12:39:08;8.70;99.90
18741;DHT22;9499;52.472;13.448;2024-01-25T12:41:36;8.70;1.00
18741;DHT22;9499;52.472;13.448;2024-01-25T12:44:03;8.70;1.00
18741;DHT22;9499;52.472;13.448;2024-01-25T12:46:29;8.70;1.00
18741;DHT22;9499;52.472;13.448;2024-01-25T12:48:56;8.70;99.90
18741;DHT22;9499;52.472;13.448;2024-01-25T12:51:23;8.70;99.90
18741;DHT22;9499;52.472;13.448;2024-01-25T12:53:50;8.70;1.00
18741;DHT22;9499;52.472;13.448;2024-01-25T12:56:17;8.70;1.00
18741;DHT22;9499;52.472;13.448;2024-01-25T12:58:44;8.80;1.00
18741;DHT22;9499;52.472;13.448;2024-01-25T13:01:11;8.70;1.00
18741;DHT22;9499;52.472;13.448;2024-01-25T13:03:37;8.70;1.00
18741;DHT22;9499;52.472;13.448;2024-01-25T13:06:04;8.70;1.00
18741;DHT22;9499;52.472;13.448;2024-01-25T13:08:31;8.70;1.00
18741;DHT22;9499;52.472;13.448;2024-01-25T13:10:57;8.70;99.90
18741;DHT22;9499;52.472;13.448;2024-01-25T13:13:24;8.70;99.90
18741;DHT22;9499;52.472;13.448;2024-01-25T13:15:52;8.70;99.90
18741;DHT22;9499;52.472;13.448;2024-01-25T13:18:18;8.70;99.90
18741;DHT22;9499;52.472;13.448;2024-01-25T13:20:45;8.70;1.00
18741;DHT22;9499;52.472;13.448;2024-01-25T13:23:11;8.70;1.00
18741;DHT22;9499;52.472;13.448;2024-01-25T13:25:38;8.90;1.00
18741;DHT22;9499;52.472;13.448;2024-01-25T13:28:05;9.00;99.90
18741;DHT22;9499;52.472;13.448;2024-01-25T13:30:32;9.10;99.90
18741;DHT22;9499;52.472;13.448;2024-01-25T13:32:59;9.00;1.00
18741;DHT22;9499;52.472;13.448;2024-01-25T13:35:26;9.00;99.90
18741;DHT22;9499;52.472;13.448;2024-01-25T13:37:52;9.00;99.90
18741;DHT22;9499;52.472;13.448;2024-01-25T13:40:19;9.00;99.90
18741;DHT22;9499;52.472;13.448;2024-01-25T13:42:45;8.90;99.90
18741;DHT22;9499;52.472;13.448;2024-01-25T13:45:12;8.90;99.90
18741;DHT22;9499;52.472;13.448;2024-01-25T13:47:38;8.80;99.90
18741;DHT22;9499;52.472;13.448;2024-01-25T13:50:07;8.80;99.90
18741;DHT22;9499;52.472;13.448;2024-01-25T13:52:33;8.80;99.90
18741;DHT22;9499;52.472;13.448;2024-01-25T13:54:59;8.80;99.90
18741;DHT22;9499;52.472;13.448;2024-01-25T13:57:25;8.80;29.10
18741;DHT22;9499;52.472;13.448;2024-01-25T13:59:51;8.70;99.90
18741;DHT22;9499;52.472;13.448;2024-01-25T14:02:18;8.70;37.40
18741;DHT22;9499;52.472;13.448;2024-01-25T14:04:44;8.70;1.00
18741;DHT22;9499;52.472;13.448;2024-01-25T14:07:15;8.70;1.00
18741;DHT22;9499;52.472;13.448;2024-01-25T14:09:41;8.70;1.00
18741;DHT22;9499;52.472;13.448;2024-01-25T14:12:08;8.60;1.00
18741;DHT22;9499;52.472;13.448;2024-01-25T14:14:36;8.60;1.00
18741;DHT22;9499;52.472;13.448;2024-01-25T14:17:03;8.60;1.00
18741;DHT22;9499;52.472;13.448;2024-01-25T14:19:29;8.60;1.00
18741;DHT22;9499;52.472;13.448;2024-01-25T14:21:56;8.60;1.00
18741;DHT22;9499;52.472;13.448;2024-01-25T14:24:24;8.70;1.00
18741;DHT22;9499;52.472;13.448;2024-01-25T14:26:50;8.60;1.00
18741;DHT22;9499;52.472;13.448;2024-01-25T14:29:17;8.60;1.00
18741;DHT22;9499;52.472;13.448;2024-01-25T14:31:43;8.60;1.00
18741;DHT22;9499;52.472;13.448;2024-01-25T14:34:10;8.60;1.00
18741;DHT22;9499;52.472;13.448;2024-01-25T14:36:36;8.60;1.00
18741;DHT22;9499;52.472;13.448;2024-01-25T14:39:03;8.60;1.00
18741;DHT22;9499;52.472;13.448;2024-01-25T14:41:31;8.60;1.00
18741;DHT22;9499;52.472;13.448;2024-01-25T14:43:59;8.60;1.00
18741;DHT22;9499;52.472;13.448;2024-01-25T14:46:25;8.60;1.00
18741;DHT22;9499;52.472;13.448;2024-01-25T14:48:52;8.50;1.00
18741;DHT22;9499;52.472;13.448;2024-01-25T14:51:18;8.50;1.00
18741;DHT22;9499;52.472;13.448;2024-01-25T14:53:45;8.50;7.60
18741;DHT22;9499;52.472;13.448;2024-01-25T14:56:11;8.40;36.80
18741;DHT22;9499;52.472;13.448;2024-01-25T14:58:39;8.40;28.90
18741;DHT22;9499;52.472;13.448;2024-01-25T15:01:06;8.40;99.90
18741;DHT22;9499;52.472;13.448;2024-01-25T15:03:32;8.40;99.90
18741;DHT22;9499;52.472;13.448;2024-01-25T15:05:59;8.40;99.90
18741;DHT22;9499;52.472;13.448;2024-01-25T15:08:26;8.40;99.90
18741;DHT22;9499;52.472;13.448;2024-01-25T15:10:52;8.30;99.90
18741;DHT22;9499;52.472;13.448;2024-01-25T15:13:19;8.30;99.90
18741;DHT22;9499;52.472;13.448;2024-01-25T15:15:47;8.40;99.90
18741;DHT22;9499;52.472;13.448;2024-01-25T15:18:13;8.30;99.90
18741;DHT22;9499;52.472;13.448;2024-01-25T15:20:40;8.30;99.90
18741;DHT22;9499;52.472;13.448;2024-01-25T15:23:06;8.30;99.90
18741;DHT22;9499;52.472;13.448;2024-01-25T15:25:34;8.30;1.00
18741;DHT22;9499;52.472;13.448;2024-01-25T15:28:00;8.20;99.90
18741;DHT22;9499;52.472;13.448;2024-01-25T15:30:27;8.30;1.00
18741;DHT22;9499;52.472;13.448;2024-01-25T15:32:54;8.20;1.00
18741;DHT22;9499;52.472;13.448;2024-01-25T15:35:21;8.20;1.00
18741;DHT22;9499;52.472;13.448;2024-01-25T15:37:48;8.20;1.00
18741;DHT22;9499;52.472;13.448;2024-01-25T15:40:15;8.20;1.00
18741;DHT22;9499;52.472;13.448;2024-01-25T15:42:42;8.20;1.00
18741;DHT22;9499;52.472;13.448;2024-01-25T15:45:10;8.20;1.00
18741;DHT22;9499;52.472;13.448;2024-01-25T15:47:37;8.20;1.00
18741;DHT22;9499;52.472;13.448;2024-01-25T15:50:05;8.20;1.00
18741;DHT22;9499;52.472;13.448;2024-01-25T15:52:32;8.20;1.00